Time;durP1;ratioP1;P1;durP2;ratioP2;P2;SDS_P1;SDS_P2;PMS_P1;PMS_P2;Temp;Humidity;BMP_temperature;BMP_pressure;BME280_temperature;BME280_humidity;BME280_pressure;Samples;Min_cycle;Max_cycle;Signal;HPM_P1;HPM_P2
2023/07/12 00:01:16;;;;;;;14.63;4.10;;;43.30;34.50;;;;;;5088607;28;20020;-70
2023/07/12 00:03:43;;;;;;;17.73;4.85;;;43.40;33.70;;;;;;5088698;28;20466;-68
2023/07/12 00:06:17;;;;;;;13.13;4.03;;;43.30;33.40;;;;;;5089688;28;20016;-67
2023/07/12 00:08:43;;;;;;;16.83;4.20;;;43.30;33.70;;;;;;5085966;28;20004;-68
2023/07/12 00:11:16;;;;;;;15.90;4.40;;;43.20;33.20;;;;;;5087250;28;20016;-66
2023/07/12 00:13:43;;;;;;;14.57;5.07;;;43.10;33.50;;;;;;5069176;28;20468;-65
2023/07/12 00:16:33;;;;;;;18.20;4.63;;;43.20;33.80;;;;;;5090107;28;20020;-65
2023/07/12 00:19:00;;;;;;;16.38;3.72;;;43.10;34.20;;;;;;5083266;28;20454;-66
2023/07/12 00:21:29;;;;;;;17.67;3.65;;;43.10;34.30;;;;;;5091277;28;20034;-67
2023/07/12 00:24:01;;;;;;;12.10;3.17;;;43.10;34.00;;;;;;5086973;28;20013;-68
2023/07/12 00:26:33;;;;;;;13.98;3.75;;;43.10;33.70;;;;;;5088078;28;20019;-66
2023/07/12 00:29:00;;;;;;;17.70;4.55;;;43.10;34.10;;;;;;5088837;28;20024;-67
2023/07/12 00:31:27;;;;;;;16.10;4.13;;;43.10;33.10;;;;;;5086036;28;20016;-68
2023/07/12 00:33:54;;;;;;;12.40;4.07;;;42.90;33.20;;;;;;5087326;28;20024;-65
2023/07/12 00:36:30;;;;;;;15.68;3.65;;;42.90;33.70;;;;;;5089171;28;20028;-65
2023/07/12 00:38:58;;;;;;;10.80;3.42;;;42.80;34.30;;;;;;5090087;28;20088;-64
2023/07/12 00:41:55;;;;;;;17.50;4.07;;;42.70;33.60;;;;;;5091628;28;20132;-63
2023/07/12 00:44:30;;;;;;;14.52;3.33;;;42.70;34.40;;;;;;5082370;28;20032;-66
2023/07/12 00:46:58;;;;;;;24.87;4.37;;;42.60;33.70;;;;;;5080450;28;20351;-65
2023/07/12 00:49:25;;;;;;;16.25;3.75;;;42.50;34.20;;;;;;5082277;28;20032;-68
2023/07/12 00:52:13;;;;;;;14.07;3.63;;;42.50;34.50;;;;;;5077589;28;20048;-67
2023/07/12 00:54:51;;;;;;;21.77;3.85;;;42.50;34.40;;;;;;5083089;28;20019;-68
2023/07/12 00:57:18;;;;;;;14.18;3.78;;;42.50;34.50;;;;;;5066511;28;20560;-66
2023/07/12 00:59:44;;;;;;;10.35;3.67;;;42.30;33.90;;;;;;5086642;28;20020;-66
2023/07/12 01:02:13;;;;;;;9.27;3.72;;;42.40;34.20;;;;;;5084788;28;20036;-67
2023/07/12 01:04:46;;;;;;;14.23;3.70;;;42.30;34.60;;;;;;5076570;28;20017;-67
2023/07/12 01:07:14;;;;;;;14.18;4.43;;;42.20;34.50;;;;;;5083800;28;20103;-68
2023/07/12 01:09:40;;;;;;;10.68;3.78;;;42.20;34.50;;;;;;5080442;28;20241;-69
2023/07/12 01:12:07;;;;;;;28.45;4.60;;;42.10;35.10;;;;;;5085510;28;20064;-68
2023/07/12 01:14:33;;;;;;;18.42;3.83;;;42.10;34.90;;;;;;5085618;28;20069;-69
2023/07/12 01:17:06;;;;;;;13.43;3.60;;;42.00;35.10;;;;;;5085858;28;20016;-70
2023/07/12 01:19:34;;;;;;;15.02;4.03;;;42.00;35.20;;;;;;5082713;28;20090;-65
2023/07/12 01:22:03;;;;;;;16.42;3.92;;;42.00;34.80;;;;;;5077532;28;20136;-64
2023/07/12 01:24:31;;;;;;;12.55;3.63;;;42.10;35.60;;;;;;5080494;28;20011;-63
2023/07/12 01:27:01;;;;;;;14.05;3.60;;;42.00;36.10;;;;;;5086741;28;20105;-64
2023/07/12 01:29:29;;;;;;;20.88;4.22;;;42.00;35.80;;;;;;5083034;28;20019;-67
2023/07/12 01:31:55;;;;;;;20.10;4.75;;;41.90;35.20;;;;;;5082036;28;20058;-65
2023/07/12 01:34:24;;;;;;;16.88;3.72;;;41.90;35.30;;;;;;5081400;28;20063;-64
2023/07/12 01:36:50;;;;;;;16.88;4.18;;;41.90;35.40;;;;;;5078265;28;20386;-63
2023/07/12 01:39:16;;;;;;;10.77;3.85;;;41.80;35.00;;;;;;5078770;28;20049;-65
2023/07/12 01:41:43;;;;;;;15.18;4.28;;;41.70;35.40;;;;;;5079853;28;20031;-65
2023/07/12 01:44:09;;;;;;;15.93;3.90;;;41.70;36.40;;;;;;5081866;28;20486;-64
2023/07/12 01:46:36;;;;;;;16.90;4.07;;;41.60;36.10;;;;;;5079585;28;20028;-63
2023/07/12 01:49:02;;;;;;;12.75;3.75;;;41.60;35.80;;;;;;5077727;28;20053;-64
2023/07/12 01:51:29;;;;;;;8.77;3.75;;;41.50;36.00;;;;;;5081891;28;20025;-63
2023/07/12 01:53:55;;;;;;;13.35;4.03;;;41.50;36.30;;;;;;5080423;28;20024;-63
2023/07/12 01:56:22;;;;;;;20.83;4.80;;;41.50;35.40;;;;;;5080935;28;20012;-63
2023/07/12 01:58:48;;;;;;;18.42;5.60;;;41.50;35.00;;;;;;5080644;28;20051;-63
2023/07/12 02:01:15;;;;;;;20.73;7.82;;;41.40;35.20;;;;;;5082453;28;20016;-63
2023/07/12 02:03:41;;;;;;;15.88;7.07;;;41.30;33.70;;;;;;5085875;28;20012;-64
2023/07/12 02:06:08;;;;;;;17.05;4.40;;;41.30;34.50;;;;;;5078145;28;20023;-63
2023/07/12 02:08:34;;;;;;;18.85;4.57;;;41.20;36.30;;;;;;5079775;28;20320;-64
2023/07/12 02:11:01;;;;;;;18.10;5.60;;;41.10;36.20;;;;;;5077421;28;20019;-61
2023/07/12 02:13:27;;;;;;;28.85;14.10;;;41.10;35.10;;;;;;5080591;28;20381;-64
2023/07/12 02:15:53;;;;;;;22.50;14.88;;;41.00;30.10;;;;;;5081733;28;20024;-62
2023/07/12 02:18:21;;;;;;;33.28;15.40;;;40.90;29.70;;;;;;5088546;28;20020;-64
2023/07/12 02:20:47;;;;;;;29.90;14.13;;;40.80;29.90;;;;;;5078121;28;20513;-63
2023/07/12 02:23:14;;;;;;;32.45;15.30;;;40.70;29.60;;;;;;5084841;28;20473;-64
2023/07/12 02:25:41;;;;;;;27.00;14.48;;;40.70;30.00;;;;;;5084494;28;20099;-63
2023/07/12 02:28:07;;;;;;;27.05;13.55;;;40.60;29.70;;;;;;5081254;28;20038;-63
2023/07/12 02:30:34;;;;;;;30.33;14.52;;;40.50;29.80;;;;;;5085889;28;20030;-64
2023/07/12 02:33:00;;;;;;;56.85;14.48;;;40.50;30.00;;;;;;5082401;28;20496;-66
2023/07/12 02:35:29;;;;;;;30.52;12.68;;;40.40;30.20;;;;;;5084349;28;20024;-64
2023/07/12 02:37:56;;;;;;;23.38;12.80;;;40.40;30.00;;;;;;5083815;28;20017;-63
2023/07/12 02:40:25;;;;;;;22.60;12.45;;;40.30;30.50;;;;;;5079047;28;20385;-65
2023/07/12 02:42:51;;;;;;;40.72;12.05;;;40.30;30.50;;;;;;5086493;28;20066;-66
2023/07/12 02:45:18;;;;;;;27.17;12.68;;;40.20;30.60;;;;;;5082807;28;20040;-65
2023/07/12 02:47:44;;;;;;;34.78;12.05;;;40.10;30.80;;;;;;5085520;28;20473;-65
2023/07/12 02:50:11;;;;;;;25.60;12.60;;;40.00;30.80;;;;;;5086612;28;20023;-67
2023/07/12 02:52:37;;;;;;;25.05;11.90;;;39.90;30.80;;;;;;5081603;28;20016;-68
2023/07/12 02:55:04;;;;;;;25.20;11.80;;;39.90;31.00;;;;;;5086693;28;20016;-66
2023/07/12 02:57:30;;;;;;;31.13;11.23;;;39.80;30.90;;;;;;5086961;28;20022;-63
2023/07/12 02:59:57;;;;;;;36.13;12.65;;;39.70;31.10;;;;;;5086642;28;20488;-66
2023/07/12 03:02:23;;;;;;;21.58;10.55;;;39.60;31.00;;;;;;5068835;28;20115;-63
2023/07/12 03:04:51;;;;;;;24.65;10.60;;;39.50;31.00;;;;;;5081344;28;20008;-64
2023/07/12 03:07:17;;;;;;;26.48;10.38;;;39.40;31.30;;;;;;5084022;28;20035;-65
2023/07/12 03:09:43;;;;;;;23.60;9.85;;;39.30;31.50;;;;;;5085515;28;20009;-63
2023/07/12 03:12:10;;;;;;;18.13;8.75;;;39.30;31.40;;;;;;5065499;28;20440;-63
2023/07/12 03:14:37;;;;;;;23.90;9.40;;;39.10;31.60;;;;;;5087268;28;20012;-64
2023/07/12 03:17:05;;;;;;;19.27;8.90;;;39.00;31.80;;;;;;5086758;28;20051;-64
2023/07/12 03:19:35;;;;;;;18.70;8.05;;;39.00;31.80;;;;;;5075591;28;20020;-64
2023/07/12 03:22:02;;;;;;;25.02;9.02;;;38.90;31.90;;;;;;5082474;28;20466;-63
2023/07/12 03:24:29;;;;;;;21.27;8.95;;;38.90;31.90;;;;;;5086357;28;20482;-64
2023/07/12 03:26:55;;;;;;;20.38;8.35;;;38.80;32.20;;;;;;5082463;28;20024;-64
2023/07/12 03:29:22;;;;;;;21.50;8.70;;;38.70;32.10;;;;;;5063844;28;20381;-67
2023/07/12 03:31:48;;;;;;;17.00;8.85;;;38.70;32.40;;;;;;5084260;28;20482;-65
2023/07/12 03:34:14;;;;;;;19.05;8.25;;;38.60;32.50;;;;;;5075083;28;20409;-64
2023/07/12 03:36:41;;;;;;;22.40;8.35;;;38.60;32.80;;;;;;5081378;28;20016;-64
2023/07/12 03:39:08;;;;;;;15.32;7.40;;;38.50;33.00;;;;;;5076376;28;20020;-62
2023/07/12 03:41:35;;;;;;;15.50;7.88;;;38.40;33.10;;;;;;5081891;28;20062;-66
2023/07/12 03:44:01;;;;;;;19.50;7.05;;;38.30;33.30;;;;;;5085448;28;20051;-64
2023/07/12 03:46:28;;;;;;;19.83;7.72;;;38.20;33.40;;;;;;5083930;28;20099;-64
2023/07/12 03:48:54;;;;;;;13.55;6.93;;;38.20;33.40;;;;;;5086176;28;20133;-67
2023/07/12 03:51:22;;;;;;;17.02;7.13;;;38.10;33.60;;;;;;5086856;28;20042;-63
2023/07/12 03:53:49;;;;;;;14.38;7.22;;;38.00;33.80;;;;;;5083661;28;20485;-62
2023/07/12 03:56:15;;;;;;;18.40;9.32;;;38.00;33.90;;;;;;5086021;28;20151;-61
2023/07/12 03:58:41;;;;;;;22.83;7.80;;;38.00;34.00;;;;;;5085401;28;20176;-64
2023/07/12 04:01:10;;;;;;;20.40;7.18;;;37.80;34.00;;;;;;5082144;28;20077;-64
2023/07/12 04:03:38;;;;;;;18.20;7.25;;;37.70;34.00;;;;;;5086482;28;20066;-64
2023/07/12 04:06:06;;;;;;;14.45;7.35;;;37.70;34.40;;;;;;5085306;28;20456;-66
2023/07/12 04:08:33;;;;;;;19.13;7.63;;;37.70;34.60;;;;;;5088105;28;20071;-67
2023/07/12 04:11:00;;;;;;;12.52;7.53;;;37.70;34.90;;;;;;5083531;28;20134;-66
2023/07/12 04:13:27;;;;;;;25.45;7.90;;;37.60;34.90;;;;;;5087511;28;20044;-66
2023/07/12 04:15:55;;;;;;;21.05;6.95;;;37.60;35.20;;;;;;5087129;28;20047;-65
2023/07/12 04:18:23;;;;;;;20.02;6.68;;;37.50;35.40;;;;;;5090628;28;20118;-65
2023/07/12 04:20:50;;;;;;;16.00;6.65;;;37.40;35.70;;;;;;5091113;28;20414;-64
2023/07/12 04:23:16;;;;;;;16.17;6.03;;;37.40;35.40;;;;;;5085660;28;20141;-63
2023/07/12 04:25:43;;;;;;;20.60;7.68;;;37.30;35.80;;;;;;5090248;28;20036;-64
2023/07/12 04:28:10;;;;;;;20.17;9.98;;;37.30;35.70;;;;;;5091040;28;20046;-66
2023/07/12 04:30:36;;;;;;;12.50;7.93;;;37.20;35.80;;;;;;5087253;28;20054;-63
2023/07/12 04:33:05;;;;;;;14.82;7.88;;;37.10;36.00;;;;;;5090085;28;20141;-64
2023/07/12 04:35:32;;;;;;;16.75;7.97;;;37.10;36.20;;;;;;5084186;28;20045;-64
2023/07/12 04:37:58;;;;;;;17.88;8.88;;;37.10;36.30;;;;;;5088932;28;20620;-63
2023/07/12 04:40:24;;;;;;;19.23;5.03;;;37.10;36.60;;;;;;5087241;28;20056;-63
2023/07/12 04:42:51;;;;;;;17.35;5.25;;;37.00;36.80;;;;;;5089816;28;20066;-65
2023/07/12 04:45:18;;;;;;;11.48;4.25;;;36.90;36.80;;;;;;5086473;28;20139;-63
2023/07/12 04:47:44;;;;;;;20.45;14.65;;;36.90;37.00;;;;;;5089230;28;20388;-65
2023/07/12 04:50:11;;;;;;;28.83;18.58;;;36.80;37.30;;;;;;5081957;28;20083;-64
2023/07/12 04:52:39;;;;;;;31.90;18.88;;;36.80;37.10;;;;;;5081746;28;20044;-63
2023/07/12 04:55:19;;;;;;;33.58;19.83;;;36.70;37.10;;;;;;5087598;28;20050;-65
2023/07/12 04:57:45;;;;;;;8.05;4.05;;;36.70;37.30;;;;;;5089778;28;20520;-64
2023/07/12 05:00:13;;;;;;;9.75;4.05;;;36.60;37.70;;;;;;5087914;28;20557;-65
2023/07/12 05:02:40;;;;;;;13.85;3.70;;;36.60;37.50;;;;;;5085830;28;20417;-67
2023/07/12 05:05:07;;;;;;;12.35;3.70;;;36.50;38.40;;;;;;5088707;28;20041;-64
2023/07/12 05:07:33;;;;;;;11.63;4.32;;;36.50;37.80;;;;;;5087983;28;20532;-65
2023/07/12 05:10:00;;;;;;;28.05;4.13;;;36.40;37.90;;;;;;5086477;28;20135;-64
2023/07/12 05:12:26;;;;;;;21.60;5.88;;;36.30;38.00;;;;;;5086446;28;20058;-63
2023/07/12 05:14:52;;;;;;;13.63;4.78;;;36.20;38.10;;;;;;5085738;28;20045;-65
2023/07/12 05:17:19;;;;;;;95.43;52.28;;;36.20;38.50;;;;;;5088306;28;20061;-64
2023/07/12 05:19:45;;;;;;;24.90;6.10;;;36.20;38.30;;;;;;5085627;28;20081;-65
2023/07/12 05:22:12;;;;;;;19.10;3.33;;;36.10;38.50;;;;;;5085888;28;20087;-69
2023/07/12 05:24:38;;;;;;;9.75;3.25;;;36.10;38.50;;;;;;5082406;28;20044;-64
2023/07/12 05:27:05;;;;;;;10.23;3.13;;;36.10;38.50;;;;;;5086282;28;20055;-65
2023/07/12 05:29:34;;;;;;;10.05;3.92;;;36.10;38.40;;;;;;5086501;28;20052;-67
2023/07/12 05:32:00;;;;;;;11.35;4.53;;;36.00;38.40;;;;;;5086092;28;20160;-68
2023/07/12 05:34:26;;;;;;;10.38;4.47;;;36.00;38.30;;;;;;5087440;28;20071;-65
2023/07/12 05:36:53;;;;;;;17.70;4.50;;;36.00;38.40;;;;;;5087499;28;20062;-68
2023/07/12 05:39:19;;;;;;;13.65;3.63;;;36.00;38.20;;;;;;5088360;28;20056;-67
2023/07/12 05:41:46;;;;;;;17.00;3.35;;;36.00;38.20;;;;;;5088686;28;20122;-69
2023/07/12 05:44:12;;;;;;;18.77;4.03;;;36.00;38.30;;;;;;5087322;28;20075;-67
2023/07/12 05:46:38;;;;;;;13.65;3.72;;;35.90;38.20;;;;;;5087941;28;20176;-69
2023/07/12 05:49:05;;;;;;;8.85;3.67;;;35.90;38.40;;;;;;5083623;28;20541;-65
2023/07/12 05:51:31;;;;;;;9.38;3.72;;;35.90;38.50;;;;;;5083623;28;20086;-67
2023/07/12 05:53:57;;;;;;;8.77;3.17;;;35.90;38.60;;;;;;5085166;28;20043;-67
2023/07/12 05:56:24;;;;;;;12.13;3.28;;;35.90;38.70;;;;;;5086682;28;21325;-67
2023/07/12 05:58:50;;;;;;;26.63;19.25;;;35.90;38.60;;;;;;5084887;28;20063;-66
2023/07/12 06:01:20;;;;;;;26.35;12.70;;;35.80;38.90;;;;;;5082973;28;20067;-63
2023/07/12 06:03:47;;;;;;;6.68;4.18;;;35.80;38.90;;;;;;5087541;28;20041;-65
2023/07/12 06:06:13;;;;;;;14.10;3.10;;;35.70;39.00;;;;;;5087143;28;20048;-64
2023/07/12 06:08:39;;;;;;;10.73;2.95;;;35.70;39.20;;;;;;5085745;28;20053;-64
2023/07/12 06:11:06;;;;;;;7.60;2.65;;;35.70;39.10;;;;;;5085559;28;20061;-66
2023/07/12 06:13:33;;;;;;;11.65;3.55;;;35.70;39.30;;;;;;5082737;28;20140;-64
2023/07/12 06:15:59;;;;;;;11.82;4.47;;;35.70;39.30;;;;;;5087156;28;20122;-64
2023/07/12 06:18:25;;;;;;;7.50;2.58;;;35.60;39.60;;;;;;5085442;28;20487;-65
2023/07/12 06:20:56;;;;;;;11.80;3.15;;;35.50;40.10;;;;;;5087884;28;20438;-65
2023/07/12 06:23:23;;;;;;;8.50;2.78;;;35.40;40.10;;;;;;5086205;28;20066;-63
2023/07/12 06:25:50;;;;;;;10.30;2.70;;;35.30;40.40;;;;;;5085848;28;20078;-66
2023/07/12 06:28:16;;;;;;;13.70;3.67;;;35.40;40.50;;;;;;5086554;28;20058;-64
2023/07/12 06:30:43;;;;;;;10.50;3.00;;;35.30;40.60;;;;;;5086894;28;20053;-66
2023/07/12 06:33:11;;;;;;;6.05;2.92;;;35.30;40.80;;;;;;5081297;28;20142;-64
2023/07/12 06:35:39;;;;;;;8.52;2.70;;;35.30;40.60;;;;;;5079127;28;20058;-65
2023/07/12 06:38:05;;;;;;;14.00;3.05;;;35.30;40.60;;;;;;5087323;28;20063;-66
2023/07/12 06:40:31;;;;;;;7.85;3.65;;;35.20;40.60;;;;;;5085109;28;20056;-64
2023/07/12 06:42:58;;;;;;;11.70;4.03;;;35.20;40.60;;;;;;5086690;28;20420;-65
2023/07/12 06:45:24;;;;;;;8.40;3.95;;;35.20;40.40;;;;;;5086405;28;20091;-65
2023/07/12 06:47:51;;;;;;;15.95;4.30;;;35.20;40.40;;;;;;5081600;28;20052;-65
2023/07/12 06:50:17;;;;;;;15.98;4.97;;;35.10;40.10;;;;;;5080384;28;20056;-66
2023/07/12 06:52:44;;;;;;;10.50;4.35;;;35.10;40.20;;;;;;5081832;28;20061;-65
2023/07/12 06:55:11;;;;;;;10.57;4.63;;;35.10;40.20;;;;;;5082738;28;20152;-63
2023/07/12 06:57:37;;;;;;;13.20;4.72;;;35.10;40.10;;;;;;5080848;28;20438;-65
2023/07/12 07:00:09;;;;;;;9.00;4.55;;;35.10;39.90;;;;;;5080052;28;20054;-64
2023/07/12 07:02:36;;;;;;;11.73;5.07;;;35.10;39.80;;;;;;5083858;28;20065;-65
2023/07/12 07:05:02;;;;;;;9.10;4.93;;;35.10;39.90;;;;;;5087282;28;20098;-63
2023/07/12 07:07:30;;;;;;;16.45;4.60;;;35.10;39.90;;;;;;5083268;28;20052;-65
2023/07/12 07:09:56;;;;;;;9.50;4.63;;;35.10;40.10;;;;;;5084125;28;20057;-64
2023/07/12 07:12:23;;;;;;;10.25;3.72;;;35.10;40.20;;;;;;5086126;28;20137;-65
2023/07/12 07:14:50;;;;;;;10.27;4.10;;;35.00;40.20;;;;;;5086400;28;20048;-63
2023/07/12 07:17:16;;;;;;;7.47;3.20;;;35.00;40.40;;;;;;5084461;28;20517;-64
2023/07/12 07:19:43;;;;;;;12.60;3.75;;;34.90;40.60;;;;;;5079573;28;20135;-64
2023/07/12 07:22:09;;;;;;;6.65;3.65;;;34.90;40.90;;;;;;5086459;28;20071;-65
2023/07/12 07:24:36;;;;;;;8.90;2.97;;;34.90;40.90;;;;;;5085809;28;20055;-64
2023/07/12 07:27:02;;;;;;;6.00;3.60;;;34.90;41.00;;;;;;5083373;28;20117;-64
2023/07/12 07:29:29;;;;;;;9.65;3.95;;;34.80;40.90;;;;;;5080306;28;20084;-64
2023/07/12 07:31:55;;;;;;;10.68;3.40;;;34.80;41.00;;;;;;5074099;28;20077;-66
2023/07/12 07:34:21;;;;;;;9.23;2.53;;;34.70;41.10;;;;;;5082500;28;20098;-65
2023/07/12 07:36:48;;;;;;;5.63;2.90;;;34.70;41.30;;;;;;5086010;28;20084;-65
2023/07/12 07:39:14;;;;;;;7.38;2.78;;;34.60;41.30;;;;;;5084253;28;20059;-65
2023/07/12 07:41:41;;;;;;;8.20;3.03;;;34.60;41.90;;;;;;5079750;28;20083;-62
2023/07/12 07:44:07;;;;;;;7.40;2.55;;;34.60;42.00;;;;;;5082055;28;20084;-62
2023/07/12 07:46:33;;;;;;;9.35;2.60;;;34.40;42.60;;;;;;5089179;28;20077;-65
2023/07/12 07:49:00;;;;;;;7.63;2.97;;;34.40;42.10;;;;;;5090108;28;20065;-63
2023/07/12 07:51:27;;;;;;;17.83;2.70;;;34.40;42.50;;;;;;5086509;28;20049;-64
2023/07/12 07:53:54;;;;;;;6.35;2.35;;;34.30;42.20;;;;;;5090075;28;20103;-65
2023/07/12 07:56:20;;;;;;;11.20;2.45;;;34.30;42.40;;;;;;5089998;28;20127;-65
2023/07/12 07:58:46;;;;;;;11.70;2.45;;;34.20;42.50;;;;;;5081757;28;20131;-65
2023/07/12 08:01:13;;;;;;;9.82;4.63;;;34.20;42.50;;;;;;5089979;28;20059;-65
2023/07/12 08:03:39;;;;;;;7.00;3.90;;;34.20;42.60;;;;;;5089715;28;20106;-65
2023/07/12 08:06:06;;;;;;;10.27;3.55;;;34.10;42.60;;;;;;5089716;28;20063;-64
2023/07/12 08:08:34;;;;;;;5.32;2.17;;;34.00;42.60;;;;;;5089844;28;20542;-65
2023/07/12 08:11:05;;;;;;;8.25;2.03;;;34.10;42.80;;;;;;5085478;28;20573;-65
2023/07/12 08:13:32;;;;;;;10.43;2.58;;;34.10;42.50;;;;;;5090570;28;20084;-66
2023/07/12 08:15:58;;;;;;;7.20;2.17;;;34.10;42.50;;;;;;5082187;28;20551;-65
2023/07/12 08:18:25;;;;;;;6.65;2.50;;;34.20;42.60;;;;;;5066351;28;20066;-66
2023/07/12 08:21:00;;;;;;;7.18;2.72;;;34.20;42.70;;;;;;5090244;28;20124;-65
2023/07/12 08:23:29;;;;;;;6.15;2.80;;;34.10;42.70;;;;;;5086823;28;20161;-64
2023/07/12 08:25:55;;;;;;;6.85;2.80;;;34.10;42.50;;;;;;5090064;28;20054;-64
2023/07/12 08:28:22;;;;;;;6.10;3.00;;;34.10;42.60;;;;;;5079966;28;20064;-66
2023/07/12 08:30:48;;;;;;;6.72;2.65;;;34.20;42.80;;;;;;5090559;28;20182;-65
2023/07/12 08:33:15;;;;;;;7.72;3.25;;;34.10;42.80;;;;;;5090638;28;20104;-66
2023/07/12 08:35:43;;;;;;;6.43;2.88;;;34.20;42.90;;;;;;5087535;28;20102;-65
2023/07/12 08:38:09;;;;;;;4.93;2.38;;;34.20;43.10;;;;;;5081026;28;20058;-65
2023/07/12 08:40:47;;;;;;;12.13;2.72;;;34.10;43.10;;;;;;5087985;28;20065;-64
2023/07/12 08:43:18;;;;;;;6.43;2.67;;;34.20;43.00;;;;;;5089333;28;20530;-63
2023/07/12 08:45:47;;;;;;;5.88;3.17;;;34.20;43.20;;;;;;5087149;28;20061;-64
2023/07/12 08:48:24;;;;;;;8.70;3.40;;;34.10;43.30;;;;;;5089594;28;20094;-67
2023/07/12 08:50:51;;;;;;;13.13;3.05;;;34.10;43.50;;;;;;5087543;28;20060;-63
2023/07/12 08:53:33;;;;;;;5.97;2.53;;;34.00;43.40;;;;;;5089600;28;20066;-64
2023/07/12 08:56:01;;;;;;;10.90;3.00;;;34.00;43.50;;;;;;5086303;28;20150;-64
2023/07/12 08:58:53;;;;;;;5.78;2.90;;;34.00;43.40;;;;;;5089384;28;20098;-66
2023/07/12 09:01:43;;;;;;;4.60;2.28;;;33.90;43.50;;;;;;5089868;28;20065;-65
2023/07/12 09:04:27;;;;;;;3.60;2.28;;;33.90;43.60;;;;;;5089151;28;20050;-64
2023/07/12 09:07:00;;;;;;;4.55;2.40;;;33.90;43.60;;;;;;5089020;28;20134;-63
2023/07/12 09:09:27;;;;;;;5.90;2.50;;;33.90;43.70;;;;;;5087044;28;20065;-63
2023/07/12 09:11:54;;;;;;;7.00;3.00;;;33.90;43.70;;;;;;5089302;28;20064;-65
2023/07/12 09:14:24;;;;;;;4.60;3.03;;;33.90;43.80;;;;;;5089211;28;20089;-62
2023/07/12 09:16:59;;;;;;;8.02;3.10;;;33.90;43.90;;;;;;5088163;28;20069;-64
2023/07/12 09:19:32;;;;;;;6.90;3.20;;;33.90;44.00;;;;;;5089289;28;20537;-63
2023/07/12 09:22:05;;;;;;;8.07;3.30;;;33.90;44.10;;;;;;5089317;28;20356;-64
2023/07/12 09:24:40;;;;;;;10.27;3.40;;;33.90;44.10;;;;;;5086475;28;20052;-67
2023/07/12 09:27:18;;;;;;;8.30;3.33;;;33.90;44.20;;;;;;5089039;28;20055;-63
2023/07/12 09:29:44;;;;;;;7.00;2.90;;;33.80;44.10;;;;;;5089598;28;20056;-65
2023/07/12 09:32:28;;;;;;;9.45;3.03;;;33.90;44.30;;;;;;5086446;28;20092;-65
2023/07/12 09:34:54;;;;;;;4.63;2.60;;;33.90;44.20;;;;;;5088414;28;20464;-64
2023/07/12 09:37:22;;;;;;;6.47;2.67;;;33.90;44.00;;;;;;5088882;28;20065;-62
2023/07/12 09:39:58;;;;;;;3.72;2.40;;;33.80;43.90;;;;;;5070901;28;20387;-64
2023/07/12 09:42:26;;;;;;;8.80;2.60;;;33.80;44.10;;;;;;5086364;28;20522;-62
2023/07/12 09:44:53;;;;;;;6.35;2.85;;;33.80;44.20;;;;;;5083468;28;20063;-64
2023/07/12 09:47:53;;;;;;;9.00;2.60;;;33.80;44.20;;;;;;5088544;28;20109;-65
2023/07/12 09:50:23;;;;;;;5.57;2.47;;;33.80;44.10;;;;;;5086762;28;20061;-64
2023/07/12 09:53:03;;;;;;;5.40;2.85;;;33.80;44.30;;;;;;5088437;28;20204;-64
2023/07/12 09:55:52;;;;;;;8.98;2.50;;;33.80;44.90;;;;;;5087695;28;20058;-64
2023/07/12 09:58:57;;;;;;;7.63;2.42;;;33.70;44.50;;;;;;5088209;28;20560;-64
2023/07/12 10:01:49;;;;;;;6.95;2.30;;;33.60;44.90;;;;;;5087899;28;20481;-64
2023/07/12 10:04:32;;;;;;;10.55;2.40;;;33.60;44.80;;;;;;5086896;28;20065;-64
2023/07/12 10:06:58;;;;;;;10.38;2.55;;;33.60;44.80;;;;;;5084677;28;20051;-63
2023/07/12 10:09:36;;;;;;;4.93;2.40;;;33.60;44.70;;;;;;5084959;28;20059;-62
2023/07/12 10:12:25;;;;;;;6.10;2.45;;;33.60;44.80;;;;;;5087616;28;20585;-64
2023/07/12 10:14:54;;;;;;;7.45;2.47;;;33.60;44.90;;;;;;5084267;28;20150;-64
2023/07/12 10:17:39;;;;;;;8.50;2.25;;;33.60;44.70;;;;;;5087962;28;20067;-64
2023/07/12 10:20:13;;;;;;;4.80;2.50;;;33.60;44.80;;;;;;5082871;28;20525;-63
2023/07/12 10:22:41;;;;;;;3.60;2.03;;;33.60;44.90;;;;;;5086897;28;20413;-64
2023/07/12 10:25:30;;;;;;;6.10;2.28;;;33.60;45.50;;;;;;5074386;28;20585;-65
2023/07/12 10:28:03;;;;;;;8.18;2.35;;;33.60;45.60;;;;;;5077633;28;20183;-64
2023/07/12 10:30:31;;;;;;;8.65;2.30;;;33.50;45.40;;;;;;5083899;28;20535;-65
2023/07/12 10:33:19;;;;;;;9.55;2.53;;;33.50;45.60;;;;;;5088464;28;20064;-64
2023/07/12 10:35:51;;;;;;;10.32;2.83;;;33.40;46.10;;;;;;5084323;28;20496;-65
2023/07/12 10:38:25;;;;;;;7.63;2.40;;;33.30;45.40;;;;;;5080392;28;20446;-65
2023/07/12 10:40:54;;;;;;;5.07;2.15;;;33.30;45.40;;;;;;5084691;28;20061;-62
2023/07/12 10:43:27;;;;;;;9.32;2.50;;;33.30;45.50;;;;;;5079977;28;20181;-64
2023/07/12 10:46:00;;;;;;;15.35;2.38;;;33.20;45.40;;;;;;5086996;28;20061;-63
2023/07/12 10:48:28;;;;;;;11.68;2.47;;;33.20;45.40;;;;;;5084841;28;20087;-64
2023/07/12 10:51:15;;;;;;;8.10;2.60;;;33.20;45.40;;;;;;5080672;28;20424;-61
2023/07/12 10:53:53;;;;;;;10.63;2.40;;;33.10;45.70;;;;;;5086756;28;20533;-64
2023/07/12 10:56:26;;;;;;;7.50;2.28;;;33.10;45.70;;;;;;5086811;28;20624;-64
2023/07/12 10:59:19;;;;;;;7.00;1.95;;;33.10;45.70;;;;;;5081036;28;20061;-64
2023/07/12 11:01:45;;;;;;;9.18;2.22;;;33.10;45.60;;;;;;5074197;28;20232;-64
2023/07/12 11:04:16;;;;;;;4.68;2.10;;;33.10;45.90;;;;;;5086829;28;20105;-64
2023/07/12 11:07:04;;;;;;;4.90;2.20;;;33.00;45.40;;;;;;5083918;28;20149;-66
2023/07/12 11:09:46;;;;;;;3.97;2.00;;;33.00;45.50;;;;;;5086650;28;20059;-63
2023/07/12 11:12:32;;;;;;;4.57;2.10;;;33.00;45.50;;;;;;5085385;28;20064;-64
2023/07/12 11:15:20;;;;;;;7.40;2.33;;;33.00;45.50;;;;;;5068343;28;20424;-65
2023/07/12 11:18:00;;;;;;;7.68;2.20;;;32.90;45.50;;;;;;5081602;28;20069;-63
2023/07/12 11:20:30;;;;;;;7.30;2.28;;;32.90;45.60;;;;;;5087033;28;20055;-65
2023/07/12 11:23:07;;;;;;;10.02;2.67;;;32.90;45.80;;;;;;5083880;28;20165;-66
2023/07/12 11:25:42;;;;;;;7.78;2.20;;;32.80;45.60;;;;;;5080161;28;20124;-64
2023/07/12 11:28:21;;;;;;;9.30;2.30;;;32.80;45.90;;;;;;5086822;28;20084;-64
2023/07/12 11:31:09;;;;;;;11.07;2.97;;;32.80;45.60;;;;;;5087287;28;20139;-64
2023/07/12 11:33:36;;;;;;;7.55;2.63;;;32.80;45.70;;;;;;5086300;28;20065;-64
2023/07/12 11:36:09;;;;;;;10.65;2.58;;;32.80;46.00;;;;;;5086662;28;20080;-64
2023/07/12 11:38:37;;;;;;;8.05;2.67;;;32.80;45.90;;;;;;5086044;28;20071;-62
2023/07/12 11:41:07;;;;;;;5.50;2.53;;;32.70;46.20;;;;;;5086865;28;20401;-63
2023/07/12 11:43:37;;;;;;;10.43;2.28;;;32.70;46.00;;;;;;5084156;28;20082;-65
2023/07/12 11:46:26;;;;;;;10.27;2.40;;;32.70;45.60;;;;;;5084472;28;20064;-63
2023/07/12 11:49:01;;;;;;;6.22;2.50;;;32.70;45.60;;;;;;5072812;28;20056;-64
2023/07/12 11:51:39;;;;;;;9.48;2.90;;;32.70;45.60;;;;;;5083051;28;20070;-63
2023/07/12 11:54:24;;;;;;;4.95;2.20;;;32.60;45.70;;;;;;5082465;28;20065;-64
2023/07/12 11:56:53;;;;;;;12.52;3.25;;;32.60;45.50;;;;;;5086571;28;20549;-64
2023/07/12 11:59:24;;;;;;;6.85;2.42;;;32.70;45.60;;;;;;5075499;28;20064;-65
2023/07/12 12:01:52;;;;;;;6.35;2.30;;;32.70;45.70;;;;;;5086546;28;20082;-64
2023/07/12 12:04:28;;;;;;;6.53;2.30;;;32.60;45.40;;;;;;5084033;28;20527;-65
2023/07/12 12:07:10;;;;;;;10.30;2.78;;;32.60;45.60;;;;;;5087128;28;20187;-63
2023/07/12 12:09:38;;;;;;;16.98;2.92;;;32.60;45.80;;;;;;5088737;28;20062;-64
2023/07/12 12:12:07;;;;;;;15.30;3.17;;;32.60;45.90;;;;;;5088161;28;20059;-65
2023/07/12 12:14:41;;;;;;;14.55;3.08;;;32.60;45.70;;;;;;5078422;28;20060;-64
2023/07/12 12:17:15;;;;;;;9.65;2.65;;;32.60;45.80;;;;;;5087308;28;20123;-66
2023/07/12 12:19:46;;;;;;;10.77;2.85;;;32.60;45.80;;;;;;5086869;28;20075;-64
2023/07/12 12:22:19;;;;;;;10.85;2.78;;;32.60;45.90;;;;;;5087125;28;20072;-63
2023/07/12 12:24:49;;;;;;;8.30;2.58;;;32.60;46.00;;;;;;5086815;28;20146;-62
2023/07/12 12:27:21;;;;;;;9.18;2.30;;;32.50;46.00;;;;;;5086428;28;20101;-63
2023/07/12 12:29:49;;;;;;;7.20;2.72;;;32.60;46.30;;;;;;5085453;28;20142;-65
2023/07/12 12:32:18;;;;;;;8.90;2.70;;;32.50;46.20;;;;;;5086731;28;20099;-64
2023/07/12 12:34:51;;;;;;;9.35;2.50;;;32.50;46.20;;;;;;5090240;28;20064;-64
2023/07/12 12:37:29;;;;;;;14.65;2.90;;;32.40;46.30;;;;;;5088939;28;20070;-64
2023/07/12 12:40:16;;;;;;;15.00;3.00;;;32.40;46.30;;;;;;5087903;28;20076;-64
2023/07/12 12:42:53;;;;;;;;;;;32.40;46.10;;;;;;5088293;28;20133;-64
2023/07/12 12:45:19;;;;;;;14.25;3.22;;;32.40;46.20;;;;;;5089637;28;19947;-65
2023/07/12 12:47:47;;;;;;;9.68;3.10;;;32.40;46.20;;;;;;5085962;28;21927;-63
2023/07/12 12:50:19;;;;;;;13.48;3.03;;;32.40;46.80;;;;;;5086542;28;20073;-63
2023/07/12 12:52:46;;;;;;;13.50;3.13;;;32.40;46.70;;;;;;5088174;28;20086;-63
2023/07/12 12:55:16;;;;;;;8.00;3.20;;;32.40;46.60;;;;;;5071354;28;20068;-64